Time;durP1;ratioP1;P1;durP2;ratioP2;P2;SDS_P1;SDS_P2;PMS_P1;PMS_P2;Temp;Humidity;BMP_temperature;BMP_pressure;BME280_temperature;BME280_humidity;BME280_pressure;Samples;Min_cycle;Max_cycle;Signal;HPM_P1;HPM_P2
2023/01/21 00:01:09;;;;;;;;;;;-0.20;99.90;;;;;;5074382;28;19999;-76
2023/01/21 00:03:35;;;;;;;;;;;-0.20;99.90;;;;;;5061236;28;21480;-76
2023/01/21 00:06:00;;;;;;;;;;;-0.20;99.90;;;;;;5076156;28;20575;-76
2023/01/21 00:08:26;;;;;;;;;;;-0.10;99.90;;;;;;5074987;28;20202;-76
2023/01/21 00:10:52;;;;;;;;;;;-0.20;99.90;;;;;;5068886;28;19995;-75
2023/01/21 00:13:18;;;;;;;;;;;-0.10;99.90;;;;;;5068694;28;19904;-76
2023/01/21 00:15:44;;;;;;;;;;;0.00;99.90;;;;;;5060806;28;20362;-76
2023/01/21 00:18:09;;;;;;;;;;;-0.10;99.90;;;;;;5074554;28;19908;-77
2023/01/21 00:20:35;;;;;;;;;;;-0.10;99.90;;;;;;5072075;28;21665;-76
2023/01/21 00:23:01;;;;;;;;;;;-0.10;99.90;;;;;;5064780;28;19904;-76
2023/01/21 00:25:27;;;;;;;;;;;-0.10;99.90;;;;;;5074925;28;19904;-76
2023/01/21 00:27:53;;;;;;;;;;;-0.10;99.90;;;;;;5057612;28;19909;-76
2023/01/21 00:30:18;;;;;;;;;;;-0.10;99.90;;;;;;5075172;28;19931;-76
2023/01/21 00:32:44;;;;;;;;;;;-0.20;99.90;;;;;;5070044;28;19916;-76
2023/01/21 00:35:10;;;;;;;;;;;-0.20;99.90;;;;;;5064954;28;20267;-76
2023/01/21 00:37:35;;;;;;;;;;;-0.20;99.90;;;;;;5073761;28;20303;-76
2023/01/21 00:40:01;;;;;;;;;;;-0.30;99.90;;;;;;5075188;28;19958;-76
2023/01/21 00:42:26;;;;;;;;;;;-0.30;99.90;;;;;;5074047;28;19904;-77
2023/01/21 00:44:52;;;;;;;;;;;-0.40;99.90;;;;;;5061705;28;19908;-76
2023/01/21 00:47:18;;;;;;;;;;;-0.40;99.90;;;;;;5062524;28;20364;-76
2023/01/21 00:49:43;;;;;;;;;;;-0.50;99.90;;;;;;5056586;28;20329;-76
2023/01/21 00:52:09;;;;;;;;;;;-0.50;99.90;;;;;;5061192;28;19916;-76
2023/01/21 00:54:35;;;;;;;;;;;-0.50;99.90;;;;;;5071542;28;19904;-76
2023/01/21 00:57:00;;;;;;;;;;;-0.40;99.90;;;;;;5070510;28;20303;-76
2023/01/21 00:59:27;;;;;;;;;;;-0.40;99.90;;;;;;5053781;28;19947;-75
2023/01/21 01:01:53;;;;;;;;;;;-0.40;99.90;;;;;;5069958;28;19913;-76
2023/01/21 01:04:18;;;;;;;;;;;-0.50;99.90;;;;;;5068228;28;19912;-75
2023/01/21 01:06:44;;;;;;;;;;;-0.40;99.90;;;;;;5081170;28;20286;-75
2023/01/21 01:09:11;;;;;;;;;;;-0.40;99.90;;;;;;5081590;28;19909;-76
2023/01/21 01:11:37;;;;;;;;;;;-0.40;99.90;;;;;;5081531;28;19905;-76
2023/01/21 01:14:03;;;;;;;;;;;-0.40;99.90;;;;;;5080848;28;20210;-75
2023/01/21 01:16:29;;;;;;;;;;;-0.30;99.90;;;;;;5081834;28;19908;-75
2023/01/21 01:18:55;;;;;;;;;;;-0.40;99.90;;;;;;5078194;28;20184;-76
2023/01/21 01:21:21;;;;;;;;;;;-0.40;99.90;;;;;;5069342;28;19915;-75
2023/01/21 01:23:47;;;;;;;;;;;-0.40;99.90;;;;;;5065460;28;19905;-74
2023/01/21 01:26:14;;;;;;;;;;;-0.40;99.90;;;;;;5081396;28;19968;-76
2023/01/21 01:28:39;;;;;;;;;;;-0.40;99.90;;;;;;5068123;28;20267;-76
2023/01/21 01:31:06;;;;;;;;;;;-0.50;99.90;;;;;;5075062;28;19940;-75
2023/01/21 01:33:32;;;;;;;;;;;-0.50;99.90;;;;;;5071576;28;19947;-76
2023/01/21 01:36:01;;;;;;;;;;;-0.60;99.90;;;;;;5080647;28;19967;-76
2023/01/21 01:38:27;;;;;;;;;;;-0.60;99.90;;;;;;5080207;28;19957;-76
2023/01/21 01:40:53;;;;;;;;;;;-0.70;99.90;;;;;;5066636;28;19908;-76
2023/01/21 01:43:21;;;;;;;;;;;-0.70;99.90;;;;;;5081350;28;19909;-75
2023/01/21 01:45:47;;;;;;;;;;;-0.70;99.90;;;;;;5080847;28;19908;-76
2023/01/21 01:48:19;;;;;;;;;;;-0.70;99.90;;;;;;5059965;28;20291;-76
2023/01/21 01:50:46;;;;;;;;;;;-0.70;99.90;;;;;;5074439;28;19904;-76
2023/01/21 01:53:12;;;;;;;;;;;-0.70;99.90;;;;;;5061272;28;19909;-76
2023/01/21 01:55:38;;;;;;;;;;;-0.70;99.90;;;;;;5072344;28;20210;-77
2023/01/21 01:58:06;;;;;;;;;;;-0.80;99.90;;;;;;5080994;28;20329;-76
2023/01/21 02:00:32;;;;;;;;;;;-0.80;99.90;;;;;;5079096;28;20012;-76
2023/01/21 02:05:42;;;;;;;;;;;-0.70;99.90;;;;;;5081191;28;19953;-77
2023/01/21 02:08:09;;;;;;;;;;;-0.70;99.90;;;;;;5080895;28;19947;-77
2023/01/21 02:10:35;;;;;;;;;;;-0.70;99.90;;;;;;5066738;28;19908;-77
2023/01/21 02:13:01;;;;;;;;;;;-0.70;99.90;;;;;;5079915;28;20214;-76
2023/01/21 02:15:34;;;;;;;;;;;-0.70;99.90;;;;;;5075535;28;19911;-77
2023/01/21 02:18:13;;;;;;;;;;;-0.60;99.90;;;;;;5073262;28;19904;-76
2023/01/21 02:20:49;;;;;;;;;;;-0.70;99.90;;;;;;5072709;28;19919;-77
2023/01/21 02:23:14;;;;;;;;;;;-0.70;99.90;;;;;;5068513;28;20199;-77
2023/01/21 02:25:55;;;;;;;;;;;-0.70;99.90;;;;;;5074623;28;19904;-76
2023/01/21 02:28:48;;;;;;;;;;;-0.60;99.90;;;;;;5068383;28;19911;-77
2023/01/21 02:31:23;;;;;;;;;;;-0.70;99.90;;;;;;5077707;28;19912;-76
2023/01/21 02:34:07;;;;;;;;;;;-0.60;99.90;;;;;;5076475;28;19904;-76
2023/01/21 02:36:33;;;;;;;;;;;-0.60;99.90;;;;;;5062481;28;19904;-76
2023/01/21 02:38:58;;;;;;;;;;;-0.60;99.90;;;;;;5072842;28;19953;-77
2023/01/21 02:41:35;;;;;;;;;;;-0.70;99.90;;;;;;5077552;28;19908;-76
2023/01/21 02:44:23;;;;;;;;;;;-0.60;99.90;;;;;;5077499;28;19961;-77
2023/01/21 02:46:51;;;;;;;;;;;-0.70;99.90;;;;;;5069710;28;19916;-78
2023/01/21 02:49:30;;;;;;;;;;;-0.80;99.90;;;;;;5075471;28;20283;-77
2023/01/21 02:51:55;;;;;;;;;;;-0.80;99.90;;;;;;5067421;28;19916;-76
2023/01/21 02:54:39;;;;;;;;;;;-0.90;99.90;;;;;;5071065;28;19908;-76
2023/01/21 02:57:09;;;;;;;;;;;-0.90;99.90;;;;;;5077306;28;19908;-77
2023/01/21 02:59:36;;;;;;;;;;;-1.00;99.90;;;;;;5075602;28;19915;-77
2023/01/21 03:02:04;;;;;;;;;;;-1.00;99.90;;;;;;5076405;28;19919;-76
2023/01/21 03:04:30;;;;;;;;;;;-1.00;99.90;;;;;;5066959;28;19904;-77
2023/01/21 03:07:16;;;;;;;;;;;-1.00;99.90;;;;;;5070766;28;20241;-77
2023/01/21 03:09:42;;;;;;;;;;;-1.00;99.90;;;;;;5049365;28;19908;-77
2023/01/21 03:12:28;;;;;;;;;;;-1.00;99.90;;;;;;5065165;28;19911;-77
2023/01/21 03:18:19;;;;;;;;;;;-1.20;99.90;;;;;;5037069;28;19967;-76
2023/01/21 03:20:55;;;;;;;;;;;-1.20;99.90;;;;;;5073164;28;19912;-77
2023/01/21 03:23:24;;;;;;;;;;;-1.20;99.90;;;;;;5065275;28;19904;-77
2023/01/21 03:25:50;;;;;;;;;;;-1.20;99.90;;;;;;5074435;28;19912;-77
2023/01/21 03:28:18;;;;;;;;;;;-1.30;99.90;;;;;;5066601;28;19912;-77
2023/01/21 03:30:46;;;;;;;;;;;-1.30;99.90;;;;;;5070376;28;19908;-77
2023/01/21 03:33:13;;;;;;;;;;;-1.30;99.90;;;;;;5064964;28;19904;-78
2023/01/21 03:35:44;;;;;;;;;;;-1.30;99.90;;;;;;5074738;28;19908;-77
2023/01/21 03:38:22;;;;;;;;;;;-1.40;99.90;;;;;;5062393;28;19905;-77
2023/01/21 03:40:57;;;;;;;;;;;-1.40;99.90;;;;;;5062137;28;19960;-77
2023/01/21 03:43:22;;;;;;;;;;;-1.40;99.90;;;;;;5075106;28;19904;-77
2023/01/21 03:45:54;;;;;;;;;;;-1.40;99.90;;;;;;5076053;28;19905;-77
2023/01/21 03:48:39;;;;;;;;;;;-1.30;99.90;;;;;;5070724;28;19913;-77
2023/01/21 03:51:07;;;;;;;;;;;-1.30;99.90;;;;;;5065144;28;19969;-77
2023/01/21 03:53:32;;;;;;;;;;;-1.30;99.90;;;;;;5075069;28;20291;-76
2023/01/21 03:55:58;;;;;;;;;;;-1.30;99.90;;;;;;5074738;28;19910;-77
2023/01/21 03:58:24;;;;;;;;;;;-1.30;99.90;;;;;;5074136;28;19962;-77
2023/01/21 04:00:50;;;;;;;;;;;-1.30;99.90;;;;;;5075788;28;20192;-77
2023/01/21 04:03:16;;;;;;;;;;;-1.30;99.90;;;;;;5071261;28;19916;-77
2023/01/21 04:05:41;;;;;;;;;;;-1.40;99.90;;;;;;5073294;28;19908;-75
2023/01/21 04:08:07;;;;;;;;;;;-1.50;99.90;;;;;;5075517;28;20211;-77
2023/01/21 04:10:32;;;;;;;;;;;-1.50;99.90;;;;;;5072864;28;19999;-76
2023/01/21 04:12:58;;;;;;;;;;;-1.50;99.90;;;;;;5064266;28;19908;-77
2023/01/21 04:15:23;;;;;;;;;;;-1.50;99.90;;;;;;5061448;28;19911;-76
2023/01/21 04:17:49;;;;;;;;;;;-1.60;99.90;;;;;;5075547;28;20314;-74
2023/01/21 04:20:15;;;;;;;;;;;-1.70;99.90;;;;;;5075645;28;19912;-77
2023/01/21 04:22:40;;;;;;;;;;;-1.70;99.90;;;;;;5071508;28;19904;-77
2023/01/21 04:25:06;;;;;;;;;;;-1.80;99.90;;;;;;5075554;28;19927;-77
2023/01/21 04:27:31;;;;;;;;;;;-1.90;99.90;;;;;;5074715;28;19966;-73
2023/01/21 04:29:57;;;;;;;;;;;-1.90;99.90;;;;;;5075367;28;19970;-77
2023/01/21 04:32:23;;;;;;;;;;;-2.00;99.90;;;;;;5074829;28;19908;-76
2023/01/21 04:34:48;;;;;;;;;;;-2.00;99.90;;;;;;5075260;28;19919;-77
2023/01/21 04:37:14;;;;;;;;;;;-1.90;99.90;;;;;;5062023;28;19916;-77
2023/01/21 04:39:40;;;;;;;;;;;-1.90;99.90;;;;;;5058238;28;19909;-77
2023/01/21 04:42:05;;;;;;;;;;;-1.90;99.90;;;;;;5075692;28;20295;-77
2023/01/21 04:44:31;;;;;;;;;;;-1.80;99.90;;;;;;5073298;28;20010;-77
2023/01/21 04:46:56;;;;;;;;;;;-1.80;99.90;;;;;;5074144;28;19994;-78
2023/01/21 04:49:22;;;;;;;;;;;-1.90;99.90;;;;;;5075086;28;19927;-76
2023/01/21 04:51:47;;;;;;;;;;;-2.00;99.90;;;;;;5074658;28;19905;-77
2023/01/21 04:54:13;;;;;;;;;;;-2.10;99.90;;;;;;5064091;28;20564;-77
2023/01/21 04:56:39;;;;;;;;;;;-2.10;99.90;;;;;;5070365;28;19908;-77
2023/01/21 04:59:04;;;;;;;;;;;-2.20;99.90;;;;;;5074946;28;20214;-77
2023/01/21 05:01:30;;;;;;;;;;;-2.20;99.90;;;;;;5074389;28;19912;-73
2023/01/21 05:03:57;;;;;;;;;;;-2.20;99.90;;;;;;5075207;28;19967;-77
2023/01/21 05:06:22;;;;;;;;;;;-2.20;99.90;;;;;;5062053;28;19997;-77
2023/01/21 05:08:48;;;;;;;;;;;-2.20;99.90;;;;;;5073414;28;19911;-76
2023/01/21 05:11:15;;;;;;;;;;;-2.10;99.90;;;;;;5074932;28;19908;-77
2023/01/21 05:13:40;;;;;;;;;;;-2.00;99.90;;;;;;5074333;28;20003;-76
2023/01/21 05:16:08;;;;;;;;;;;-1.80;99.90;;;;;;5075085;28;19939;-77
2023/01/21 05:18:35;;;;;;;;;;;-1.70;99.90;;;;;;5073245;28;19914;-77
2023/01/21 05:21:00;;;;;;;;;;;-1.70;99.90;;;;;;5073666;28;19909;-76
2023/01/21 05:23:26;;;;;;;;;;;-1.80;99.90;;;;;;5074727;28;19912;-76
2023/01/21 05:25:52;;;;;;;;;;;-2.00;99.90;;;;;;5074412;28;20206;-77
2023/01/21 05:28:17;;;;;;;;;;;-2.10;99.90;;;;;;5070332;28;19911;-77
2023/01/21 05:30:43;;;;;;;;;;;-2.30;99.90;;;;;;5070571;28;19990;-76
2023/01/21 05:33:08;;;;;;;;;;;-2.40;99.90;;;;;;5073562;28;19916;-77
2023/01/21 05:35:34;;;;;;;;;;;-2.60;99.90;;;;;;5074189;28;19916;-77
2023/01/21 05:38:00;;;;;;;;;;;-2.70;99.90;;;;;;5074791;28;20191;-77
2023/01/21 05:40:25;;;;;;;;;;;-2.70;99.90;;;;;;5074589;28;19908;-77
2023/01/21 05:42:51;;;;;;;;;;;-2.70;99.90;;;;;;5074006;28;19908;-77
2023/01/21 05:45:17;;;;;;;;;;;-2.70;99.90;;;;;;5074276;28;19953;-76
2023/01/21 05:47:42;;;;;;;;;;;-2.60;99.90;;;;;;5074827;28;19904;-77
2023/01/21 05:50:08;;;;;;;;;;;-2.40;99.90;;;;;;5068940;28;20258;-77
2023/01/21 05:52:34;;;;;;;;;;;-2.40;99.90;;;;;;5069684;28;20257;-76
2023/01/21 05:55:00;;;;;;;;;;;-2.30;99.90;;;;;;5076758;28;19912;-76
2023/01/21 05:57:25;;;;;;;;;;;-2.30;99.90;;;;;;5077029;28;20737;-77
2023/01/21 05:59:51;;;;;;;;;;;-2.30;99.90;;;;;;5063503;28;19923;-74
2023/01/21 06:02:17;;;;;;;;;;;-2.10;99.90;;;;;;5077281;28;20003;-76
2023/01/21 06:04:42;;;;;;;;;;;-2.10;99.90;;;;;;5077202;28;19904;-74
2023/01/21 06:07:08;;;;;;;;;;;-2.20;99.90;;;;;;5061783;28;19908;-77
2023/01/21 06:09:34;;;;;;;;;;;-2.30;99.90;;;;;;5060087;28;19908;-77
2023/01/21 06:11:59;;;;;;;;;;;-2.40;99.90;;;;;;5074051;28;19905;-77
2023/01/21 06:14:25;;;;;;;;;;;-2.50;99.90;;;;;;5067419;28;20207;-75
2023/01/21 06:16:50;;;;;;;;;;;-2.40;99.90;;;;;;5073804;28;19958;-76
2023/01/21 06:19:17;;;;;;;;;;;-2.40;99.90;;;;;;5068164;28;19927;-77
2023/01/21 06:21:42;;;;;;;;;;;-2.30;99.90;;;;;;5077799;28;20188;-74
2023/01/21 06:24:08;;;;;;;;;;;-2.20;99.90;;;;;;5076639;28;20045;-76
2023/01/21 06:26:33;;;;;;;;;;;-2.00;99.90;;;;;;5067038;28;20010;-76
2023/01/21 06:28:59;;;;;;;;;;;-2.00;99.90;;;;;;5072995;28;20002;-77
2023/01/21 06:31:25;;;;;;;;;;;-2.00;99.90;;;;;;5077853;28;19957;-76
2023/01/21 06:33:50;;;;;;;;;;;-2.00;99.90;;;;;;5077202;28;20326;-76
2023/01/21 06:36:17;;;;;;;;;;;-2.00;99.90;;;;;;5077408;28;19904;-76
2023/01/21 06:38:42;;;;;;;;;;;-2.10;99.90;;;;;;5065882;28;19908;-75
2023/01/21 06:41:08;;;;;;;;;;;-2.00;99.90;;;;;;5063601;28;19915;-77
2023/01/21 06:43:33;;;;;;;;;;;-2.00;99.90;;;;;;5076372;28;19915;-75
2023/01/21 06:45:59;;;;;;;;;;;-1.90;99.90;;;;;;5073631;28;19908;-76
2023/01/21 06:48:25;;;;;;;;;;;-1.80;99.90;;;;;;5077192;28;20198;-77
2023/01/21 06:50:50;;;;;;;;;;;-1.80;99.90;;;;;;5077038;28;20265;-76
2023/01/21 06:53:16;;;;;;;;;;;-1.80;99.90;;;;;;5069290;28;19904;-76
2023/01/21 06:55:41;;;;;;;;;;;-1.80;99.90;;;;;;5071201;28;19908;-77
2023/01/21 06:58:07;;;;;;;;;;;-1.70;99.90;;;;;;5073950;28;19915;-76
2023/01/21 07:00:33;;;;;;;;;;;-1.80;99.90;;;;;;5063625;28;20291;-76
2023/01/21 07:02:59;;;;;;;;;;;-1.80;99.90;;;;;;5063972;28;19959;-75
2023/01/21 07:05:25;;;;;;;;;;;-1.80;99.90;;;;;;5070373;28;19912;-75
2023/01/21 07:07:54;;;;;;;;;;;-1.80;99.90;;;;;;5067499;28;19923;-77
2023/01/21 07:10:20;;;;;;;;;;;-1.80;99.90;;;;;;5064107;28;19973;-77
2023/01/21 07:12:46;;;;;;;;;;;-1.90;99.90;;;;;;5057583;28;19909;-77
2023/01/21 07:15:11;;;;;;;;;;;-1.90;99.90;;;;;;5064390;28;19925;-77
2023/01/21 07:17:37;;;;;;;;;;;-1.90;99.90;;;;;;5064527;28;20326;-77
2023/01/21 07:20:03;;;;;;;;;;;-2.00;99.90;;;;;;5062237;28;19909;-74
2023/01/21 07:22:29;;;;;;;;;;;-2.00;99.90;;;;;;5068862;28;19916;-76
2023/01/21 07:24:55;;;;;;;;;;;-2.00;99.90;;;;;;5065331;28;19908;-74
2023/01/21 07:27:21;;;;;;;;;;;-2.10;99.90;;;;;;5068057;28;19908;-76
2023/01/21 07:29:46;;;;;;;;;;;-2.10;99.90;;;;;;5068344;28;19916;-77
2023/01/21 07:32:12;;;;;;;;;;;-2.10;99.90;;;;;;5070831;28;19908;-76
2023/01/21 07:34:37;;;;;;;;;;;-2.10;99.90;;;;;;5072944;28;19915;-76
2023/01/21 07:37:03;;;;;;;;;;;-2.10;99.90;;;;;;5064682;28;20203;-76
2023/01/21 07:39:29;;;;;;;;;;;-2.00;99.90;;;;;;5065635;28;19912;-76
2023/01/21 07:41:54;;;;;;;;;;;-2.00;99.90;;;;;;5074790;28;19938;-74
2023/01/21 07:44:20;;;;;;;;;;;-1.90;99.90;;;;;;5075566;28;20251;-75
2023/01/21 07:46:45;;;;;;;;;;;-1.90;99.90;;;;;;5063834;28;19912;-74
2023/01/21 07:49:16;;;;;;;;;;;-1.90;99.90;;;;;;5067370;28;20202;-76
2023/01/21 07:51:42;;;;;;;;;;;-1.90;99.90;;;;;;5074865;28;19916;-75
2023/01/21 07:54:09;;;;;;;;;;;-1.80;99.90;;;;;;5073774;28;19904;-76
2023/01/21 07:56:34;;;;;;;;;;;-1.80;99.90;;;;;;5072131;28;19957;-76
2023/01/21 07:59:00;;;;;;;;;;;-1.80;99.90;;;;;;5062592;28;19904;-77
2023/01/21 08:01:29;;;;;;;;;;;-1.80;99.90;;;;;;5068707;28;20303;-77
2023/01/21 08:03:55;;;;;;;;;;;-1.80;99.90;;;;;;5068013;28;19905;-76
2023/01/21 08:06:21;;;;;;;;;;;-1.80;99.90;;;;;;5069239;28;20264;-76
2023/01/21 08:08:46;;;;;;;;;;;-1.90;99.90;;;;;;5063898;28;19904;-77
2023/01/21 08:11:12;;;;;;;;;;;-1.80;99.90;;;;;;5067907;28;20255;-75
2023/01/21 08:13:38;;;;;;;;;;;-1.80;99.90;;;;;;5066442;28;19953;-76
2023/01/21 08:16:04;;;;;;;;;;;-1.70;99.90;;;;;;5062643;28;19943;-76
2023/01/21 08:18:29;;;;;;;;;;;-1.60;99.90;;;;;;5045006;28;19916;-75
2023/01/21 08:20:56;;;;;;;;;;;-1.60;99.90;;;;;;5060749;28;20002;-76
2023/01/21 08:23:21;;;;;;;;;;;-1.50;99.90;;;;;;5063331;28;19953;-75
2023/01/21 08:25:47;;;;;;;;;;;-1.60;99.90;;;;;;5061183;28;20229;-76
2023/01/21 08:28:13;;;;;;;;;;;-1.50;99.90;;;;;;5059799;28;19912;-76
2023/01/21 08:30:38;;;;;;;;;;;-1.50;99.90;;;;;;5062164;28;19912;-76
2023/01/21 08:33:04;;;;;;;;;;;-1.50;99.90;;;;;;5062909;28;20322;-77
2023/01/21 08:35:29;;;;;;;;;;;-1.50;99.90;;;;;;5059117;28;19996;-77
2023/01/21 08:37:56;;;;;;;;;;;-1.50;99.90;;;;;;5061102;28;19904;-77
2023/01/21 08:40:24;;;;;;;;;;;-1.40;99.90;;;;;;5060523;28;20046;-75
2023/01/21 08:42:50;;;;;;;;;;;-1.40;99.90;;;;;;5070368;28;19904;-76
2023/01/21 08:45:15;;;;;;;;;;;-1.40;99.90;;;;;;5070492;28;19904;-77
2023/01/21 08:47:41;;;;;;;;;;;-1.40;99.90;;;;;;5058208;28;19916;-77
2023/01/21 08:50:08;;;;;;;;;;;-1.40;99.90;;;;;;5064615;28;20192;-77
2023/01/21 08:52:33;;;;;;;;;;;-1.40;99.90;;;;;;5063099;28;19909;-76
2023/01/21 08:54:59;;;;;;;;;;;-1.40;99.90;;;;;;5064688;28;19915;-77
2023/01/21 08:57:25;;;;;;;;;;;-1.30;99.90;;;;;;5059615;28;19908;-76
2023/01/21 08:59:51;;;;;;;;;;;-1.40;99.90;;;;;;5058402;28;20272;-76
2023/01/21 09:02:16;;;;;;;;;;;-1.40;99.90;;;;;;5064219;28;19955;-76
2023/01/21 09:04:42;;;;;;;;;;;-1.40;99.90;;;;;;5063954;28;20367;-75
2023/01/21 09:07:08;;;;;;;;;;;-1.30;99.90;;;;;;5061676;28;19904;-77
2023/01/21 09:09:33;;;;;;;;;;;-1.30;99.90;;;;;;5066383;28;19930;-77
2023/01/21 09:11:59;;;;;;;;;;;-1.40;99.90;;;;;;5062255;28;19970;-75
2023/01/21 09:14:25;;;;;;;;;;;-1.30;99.90;;;;;;5064322;28;19913;-76
2023/01/21 09:16:50;;;;;;;;;;;-1.40;99.90;;;;;;5068174;28;19948;-77
2023/01/21 09:19:16;;;;;;;;;;;-1.30;99.90;;;;;;5074185;28;20219;-75
2023/01/21 09:21:42;;;;;;;;;;;-1.30;99.90;;;;;;5073606;28;19908;-77
2023/01/21 09:24:07;;;;;;;;;;;-1.30;99.90;;;;;;5073964;28;19957;-77
2023/01/21 09:26:33;;;;;;;;;;;-1.20;99.90;;;;;;5077962;28;19911;-75
2023/01/21 09:28:59;;;;;;;;;;;-1.20;99.90;;;;;;5077659;28;20369;-77
2023/01/21 09:31:26;;;;;;;;;;;-1.20;99.90;;;;;;5076454;28;19904;-76
2023/01/21 09:33:53;;;;;;;;;;;-1.10;99.90;;;;;;5077633;28;19908;-77
2023/01/21 09:36:20;;;;;;;;;;;-1.10;99.90;;;;;;5078320;28;19905;-76
2023/01/21 09:38:46;;;;;;;;;;;-1.10;99.90;;;;;;5077453;28;19991;-76
2023/01/21 09:41:22;;;;;;;;;;;-1.10;99.90;;;;;;5076323;28;19908;-76
2023/01/21 09:43:51;;;;;;;;;;;-1.10;99.90;;;;;;5076176;28;19904;-76
2023/01/21 09:46:23;;;;;;;;;;;-1.00;99.90;;;;;;5070405;28;19904;-76
2023/01/21 09:48:48;;;;;;;;;;;-0.90;99.90;;;;;;5065759;28;19904;-76
2023/01/21 09:51:34;;;;;;;;;;;-0.90;99.90;;;;;;5063141;28;19915;-76
2023/01/21 09:54:01;;;;;;;;;;;-0.90;99.90;;;;;;5057866;28;19905;-76
2023/01/21 09:56:49;;;;;;;;;;;-0.90;99.90;;;;;;5073628;28;19938;-77
2023/01/21 09:59:22;;;;;;;;;;;-0.90;99.90;;;;;;5048566;28;19962;-77
2023/01/21 10:01:49;;;;;;;;;;;-0.80;99.90;;;;;;5061055;28;19938;-76
2023/01/21 10:04:14;;;;;;;;;;;-0.70;99.90;;;;;;5066514;28;19966;-75
2023/01/21 10:06:46;;;;;;;;;;;-0.60;99.90;;;;;;5065585;28;19917;-77
2023/01/21 10:09:30;;;;;;;;;;;-0.50;99.90;;;;;;5074549;28;19961;-77
2023/01/21 10:12:15;;;;;;;;;;;-0.40;99.90;;;;;;5075785;28;19913;-76
2023/01/21 10:14:53;;;;;;;;;;;-0.20;99.90;;;;;;5067739;28;20207;-76
2023/01/21 10:17:19;;;;;;;;;;;0.00;99.90;;;;;;5072650;28;20202;-75
2023/01/21 10:19:47;;;;;;;;;;;0.00;99.90;;;;;;5061952;28;19909;-75
2023/01/21 10:22:20;;;;;;;;;;;0.00;99.90;;;;;;5062270;28;19947;-75
2023/01/21 10:24:52;;;;;;;;;;;0.00;99.90;;;;;;5070735;28;19905;-75
2023/01/21 10:27:19;;;;;;;;;;;0.00;99.90;;;;;;5066120;28;19986;-75
2023/01/21 10:29:46;;;;;;;;;;;0.00;99.90;;;;;;5064386;28;20304;-76
2023/01/21 10:32:14;;;;;;;;;;;0.00;99.90;;;;;;5071448;28;20256;-75
2023/01/21 10:34:43;;;;;;;;;;;0.10;99.90;;;;;;5065529;28;19912;-76
2023/01/21 10:37:21;;;;;;;;;;;0.20;99.90;;;;;;5070335;28;20330;-75
2023/01/21 10:39:58;;;;;;;;;;;0.10;99.90;;;;;;5076928;28;19962;-76
2023/01/21 10:42:30;;;;;;;;;;;0.00;99.90;;;;;;5076812;28;20004;-76
2023/01/21 10:45:02;;;;;;;;;;;0.10;99.90;;;;;;5075764;28;19905;-75
2023/01/21 10:47:41;;;;;;;;;;;0.20;99.90;;;;;;5077261;28;19930;-76
2023/01/21 10:50:25;;;;;;;;;;;0.20;99.90;;;;;;5061711;28;19973;-75
2023/01/21 10:52:51;;;;;;;;;;;0.30;99.90;;;;;;5077479;28;19905;-76
2023/01/21 10:55:21;;;;;;;;;;;0.50;99.90;;;;;;5076759;28;19999;-76
2023/01/21 10:58:10;;;;;;;;;;;0.60;99.90;;;;;;5077210;28;19954;-76
2023/01/21 11:00:42;;;;;;;;;;;0.70;99.90;;;;;;5064534;28;19917;-76
2023/01/21 11:03:40;;;;;;;;;;;0.70;99.90;;;;;;5076202;28;19904;-76
2023/01/21 11:06:07;;;;;;;;;;;0.70;99.90;;;;;;5032935;28;19909;-76
2023/01/21 11:08:33;;;;;;;;;;;0.70;99.90;;;;;;5076297;28;19915;-76
2023/01/21 11:10:58;;;;;;;;;;;0.70;99.90;;;;;;5077124;28;20366;-76
2023/01/21 11:13:24;;;;;;;;;;;0.60;99.90;;;;;;5076110;28;19953;-76
2023/01/21 11:15:54;;;;;;;;;;;0.60;99.90;;;;;;5075745;28;19915;-76
2023/01/21 11:18:28;;;;;;;;;;;0.50;99.90;;;;;;5062149;28;20295;-75
2023/01/21 11:20:56;;;;;;;;;;;0.50;99.90;;;;;;5075345;28;19942;-75
2023/01/21 11:23:27;;;;;;;;;;;0.50;99.90;;;;;;5048479;28;19932;-76
2023/01/21 11:25:59;;;;;;;;;;;0.50;99.90;;;;;;5076619;28;19973;-76
2023/01/21 11:28:26;;;;;;;;;;;0.40;99.90;;;;;;5075791;28;19916;-75
2023/01/21 11:31:10;;;;;;;;;;;0.50;99.90;;;;;;5076573;28;19904;-76
2023/01/21 11:33:36;;;;;;;;;;;0.60;99.90;;;;;;5061519;28;20185;-75
2023/01/21 11:36:15;;;;;;;;;;;0.60;99.90;;;;;;5076524;28;19915;-75
2023/01/21 11:38:41;;;;;;;;;;;0.50;99.90;;;;;;5061818;28;19904;-75
2023/01/21 11:41:06;;;;;;;;;;;0.70;99.90;;;;;;5075029;28;19931;-76
2023/01/21 11:43:39;;;;;;;;;;;0.60;99.90;;;;;;5072540;28;19908;-75
2023/01/21 11:46:23;;;;;;;;;;;0.40;99.90;;;;;;5070856;28;20269;-75
2023/01/21 11:48:52;;;;;;;;;;;0.40;99.90;;;;;;5056279;28;20011;-76
2023/01/21 11:51:18;;;;;;;;;;;0.50;99.90;;;;;;5070408;28;19954;-75
2023/01/21 11:53:45;;;;;;;;;;;0.40;99.90;;;;;;5069147;28;19917;-76
2023/01/21 11:56:11;;;;;;;;;;;0.30;99.90;;;;;;5069142;28;19904;-75
2023/01/21 11:58:39;;;;;;;;;;;0.30;99.90;;;;;;5061124;28;19905;-75
2023/01/21 12:01:07;;;;;;;;;;;0.30;99.90;;;;;;5064348;28;19994;-76
2023/01/21 12:03:44;;;;;;;;;;;0.20;99.90;;;;;;5055418;28;19908;-75
2023/01/21 12:06:16;;;;;;;;;;;0.30;99.90;;;;;;5057924;28;19936;-75
2023/01/21 12:08:42;;;;;;;;;;;0.40;99.90;;;;;;5074847;28;19912;-77
2023/01/21 12:11:07;;;;;;;;;;;0.30;99.90;;;;;;5075908;28;19912;-75
2023/01/21 12:13:38;;;;;;;;;;;0.20;99.90;;;;;;5075142;28;19904;-75
2023/01/21 12:16:10;;;;;;;;;;;0.20;99.90;;;;;;5074711;28;19909;-75
2023/01/21 12:18:56;;;;;;;;;;;0.30;99.90;;;;;;5074997;28;19905;-75
2023/01/21 12:21:25;;;;;;;;;;;0.30;99.90;;;;;;5060364;28;19912;-75
2023/01/21 12:24:23;;;;;;;;;;;0.50;99.90;;;;;;5061791;28;19930;-75
2023/01/21 12:26:54;;;;;;;;;;;0.60;99.90;;;;;;5013229;28;19913;-75
2023/01/21 12:29:20;;;;;;;;;;;0.60;99.90;;;;;;5013952;28;19944;-74
2023/01/21 12:31:51;;;;;;;;;;;0.70;99.90;;;;;;5000084;28;19905;-74
2023/01/21 12:34:22;;;;;;;;;;;0.60;99.90;;;;;;5013667;28;19947;-74
2023/01/21 12:37:00;;;;;;;;;;;0.60;99.90;;;;;;5012957;28;19963;-75
2023/01/21 12:39:30;;;;;;;;;;;0.50;99.90;;;;;;5012794;28;19909;-75
2023/01/21 12:42:14;;;;;;;;;;;0.40;99.90;;;;;;4996145;28;19914;-75
2023/01/21 12:44:49;;;;;;;;;;;0.40;99.90;;;;;;5012777;28;20251;-76
2023/01/21 12:47:20;;;;;;;;;;;0.50;99.90;;;;;;4995978;28;20292;-74
2023/01/21 12:49:52;;;;;;;;;;;0.50;99.90;;;;;;4993991;28;20697;-76
2023/01/21 12:52:23;;;;;;;;;;;0.50;99.90;;;;;;5009748;28;20296;-73
2023/01/21 12:55:03;;;;;;;;;;;0.50;99.90;;;;;;5010865;28;20546;-73
2023/01/21 12:57:32;;;;;;;;;;;0.50;99.90;;;;;;5010478;28;19924;-73
2023/01/21 13:00:18;;;;;;;;;;;0.50;99.90;;;;;;5010767;28;19965;-74
2023/01/21 13:02:57;;;;;;;;;;;0.60;99.90;;;;;;5036319;28;19951;-73
2023/01/21 13:05:29;;;;;;;;;;;0.60;99.90;;;;;;5072289;28;19904;-73
2023/01/21 13:08:02;;;;;;;;;;;0.60;99.90;;;;;;5068152;28;20261;-74
2023/01/21 13:10:41;;;;;;;;;;;0.60;99.90;;;;;;5066630;28;20311;-77
2023/01/21 13:13:09;;;;;;;;;;;0.60;99.90;;;;;;5065061;28;19904;-73
2023/01/21 13:15:36;;;;;;;;;;;0.50;99.90;;;;;;5074085;28;19908;-73
2023/01/21 13:18:04;;;;;;;;;;;0.30;99.90;;;;;;5062307;28;19904;-75
2023/01/21 13:20:33;;;;;;;;;;;0.30;99.90;;;;;;5074700;28;19954;-74
2023/01/21 13:23:16;;;;;;;;;;;0.40;99.90;;;;;;5069313;28;19904;-73
2023/01/21 13:26:01;;;;;;;;;;;0.40;99.90;;;;;;5074965;28;19911;-73
2023/01/21 13:28:26;;;;;;;;;;;0.30;99.90;;;;;;5074972;28;19908;-74
2023/01/21 13:30:55;;;;;;;;;;;0.30;99.90;;;;;;5062298;28;19958;-73
2023/01/21 13:33:23;;;;;;;;;;;0.30;99.90;;;;;;5074433;28;19904;-74
2023/01/21 13:36:07;;;;;;;;;;;0.30;99.90;;;;;;5074689;28;19912;-74
2023/01/21 13:38:33;;;;;;;;;;;0.20;99.90;;;;;;5073838;28;20003;-74
2023/01/21 13:41:19;;;;;;;;;;;0.10;99.90;;;;;;5074337;28;20007;-73
2023/01/21 13:43:54;;;;;;;;;;;0.20;99.90;;;;;;5073837;28;20206;-75
2023/01/21 13:46:28;;;;;;;;;;;0.20;99.90;;;;;;5075015;28;19931;-72
2023/01/21 13:49:20;;;;;;;;;;;0.20;99.90;;;;;;5059986;28;20004;-73
2023/01/21 13:51:54;;;;;;;;;;;0.20;99.90;;;;;;5039816;28;20202;-73
2023/01/21 13:54:29;;;;;;;;;;;0.30;99.90;;;;;;5074646;28;19970;-72
2023/01/21 13:56:57;;;;;;;;;;;0.10;99.90;;;;;;5059856;28;19912;-73
2023/01/21 13:59:32;;;;;;;;;;;0.10;99.90;;;;;;5074389;28;19957;-73
2023/01/21 14:02:08;;;;;;;;;;;0.10;99.90;;;;;;5072760;28;19916;-73
2023/01/21 14:04:33;;;;;;;;;;;0.10;99.90;;;;;;5065156;28;19935;-75
2023/01/21 14:07:22;;;;;;;;;;;0.20;99.90;;;;;;5053172;28;20358;-76
2023/01/21 14:09:50;;;;;;;;;;;0.10;99.90;;;;;;5065884;28;19904;-77
2023/01/21 14:12:22;;;;;;;;;;;0.10;99.90;;;;;;5075746;28;19976;-76
2023/01/21 14:14:47;;;;;;;;;;;0.10;99.90;;;;;;5068397;28;19905;-76
2023/01/21 14:17:13;;;;;;;;;;;0.00;99.90;;;;;;5057027;28;19904;-72
2023/01/21 14:19:53;;;;;;;;;;;0.00;99.90;;;;;;5069253;28;19986;-78
2023/01/21 14:22:38;;;;;;;;;;;0.00;99.90;;;;;;5062768;28;20292;-73
2023/01/21 14:25:03;;;;;;;;;;;0.00;99.90;;;;;;5071760;28;19915;-73
2023/01/21 14:27:45;;;;;;;;;;;0.10;99.90;;;;;;5076781;28;19908;-77
2023/01/21 14:30:30;;;;;;;;;;;0.20;99.90;;;;;;5076074;28;19905;-77
2023/01/21 14:32:59;;;;;;;;;;;0.10;99.90;;;;;;5066607;28;19944;-73
2023/01/21 14:35:27;;;;;;;;;;;0.10;99.90;;;;;;5075958;28;19908;-73
2023/01/21 14:38:08;;;;;;;;;;;0.10;99.90;;;;;;5076564;28;20307;-74